createdAt,value
2017-04-25T00:02:48.259Z,1004.837
2017-04-25T00:05:52.822Z,1004.760
2017-04-25T00:12:00.163Z,1004.778
2017-04-25T00:15:05.293Z,1004.755
2017-04-25T00:21:13.487Z,1004.766
2017-04-25T00:24:17.626Z,1004.742
2017-04-25T00:27:22.608Z,1004.714
2017-04-25T00:30:26.312Z,1004.717
2017-04-25T00:36:35.868Z,1004.708
2017-04-25T00:42:43.377Z,1004.578
2017-04-25T00:45:48.387Z,1004.518
2017-04-25T00:51:57.363Z,1004.393
2017-04-25T00:55:01.402Z,1004.387
2017-04-25T00:58:05.609Z,1004.388
2017-04-25T01:01:09.527Z,1004.356
2017-04-25T01:04:13.251Z,1004.304
2017-04-25T01:07:17.966Z,1004.269
2017-04-25T01:13:27.219Z,1004.194
2017-04-25T01:16:31.574Z,1004.162
2017-04-25T01:19:37.210Z,1004.142
2017-04-25T01:25:46.670Z,1004.148
2017-04-25T01:28:50.562Z,1004.116
2017-04-25T01:31:49.995Z,1004.134
2017-04-25T01:35:00.740Z,1004.096
2017-04-25T01:38:03.589Z,1004.095
2017-04-25T01:41:07.722Z,1004.028
2017-04-25T01:44:11.620Z,1003.954
2017-04-25T01:47:15.258Z,1003.957
2017-04-25T01:50:19.185Z,1003.988
2017-04-25T01:53:23.390Z,1003.942
2017-04-25T01:56:28.438Z,1003.926
2017-04-25T01:59:32.629Z,1003.856
2017-04-25T02:02:37.507Z,1003.842
2017-04-25T02:05:42.456Z,1003.775
2017-04-25T02:08:47.426Z,1003.755
2017-04-25T02:11:51.996Z,1003.782
2017-04-25T02:14:56.298Z,1003.730
2017-04-25T02:18:00.521Z,1003.744
2017-04-25T02:21:05.309Z,1003.714
2017-04-25T02:27:15.236Z,1003.620
2017-04-25T02:30:19.800Z,1003.518
2017-04-25T02:33:24.132Z,1003.448
2017-04-25T02:39:34.023Z,1003.555
2017-04-25T02:42:38.400Z,1003.523
2017-04-25T02:45:41.379Z,1003.543
2017-04-25T02:48:45.392Z,1003.351
2017-04-25T02:51:50.445Z,1003.488
2017-04-25T02:54:54.403Z,1003.572
2017-04-25T02:57:58.410Z,1003.360
2017-04-25T03:01:02.654Z,1003.301
2017-04-25T03:04:07.622Z,1003.437
2017-04-25T03:07:11.852Z,1003.444
2017-04-25T03:10:15.733Z,1003.366
2017-04-25T03:13:19.459Z,1003.408
2017-04-25T03:16:24.257Z,1003.451
2017-04-25T03:22:33.028Z,1003.372
2017-04-25T03:28:41.682Z,1003.373
2017-04-25T03:31:45.669Z,1003.307
2017-04-25T03:34:49.192Z,1003.229
2017-04-25T03:40:58.240Z,1003.102
2017-04-25T03:44:03.218Z,1003.067
2017-04-25T03:50:12.878Z,1003.104
2017-04-25T03:53:16.329Z,1002.947
2017-04-25T04:05:34.572Z,1002.666
2017-04-25T04:08:39.463Z,1002.565
2017-04-25T04:11:43.310Z,1002.742
2017-04-25T04:14:48.200Z,1002.781
2017-04-25T04:17:52.171Z,1002.803
2017-04-25T04:20:57.137Z,1002.808
2017-04-25T04:24:01.426Z,1002.828
2017-04-25T04:39:21.936Z,1002.725
2017-04-25T04:42:25.707Z,1002.748
2017-04-25T04:45:30.842Z,1002.641
2017-04-25T04:48:34.826Z,1002.649
2017-04-25T04:54:43.856Z,1002.651
2017-04-25T04:57:48.000Z,1002.576
2017-04-25T05:00:52.006Z,1002.395
2017-04-25T05:03:57.024Z,1002.429
2017-04-25T05:07:00.809Z,1002.471
2017-04-25T05:09:58.781Z,1002.342
2017-04-25T05:13:03.520Z,1002.375
2017-04-25T05:16:07.577Z,1002.437
2017-04-25T05:22:23.449Z,1002.578
2017-04-25T05:25:20.608Z,1002.675
2017-04-25T05:28:25.012Z,1002.743
2017-04-25T05:31:35.303Z,1002.722
2017-04-25T05:34:39.749Z,1002.575
2017-04-25T05:37:42.779Z,1002.547
2017-04-25T05:40:47.410Z,1002.490
2017-04-25T05:43:51.076Z,1002.520
2017-04-25T05:49:59.712Z,1002.530
2017-04-25T05:53:03.246Z,1002.652
2017-04-25T05:56:07.956Z,1002.697
2017-04-25T05:59:12.066Z,1002.795
2017-04-25T06:02:16.559Z,1002.841
2017-04-25T06:05:18.421Z,1002.618
2017-04-25T06:08:22.633Z,1002.640
2017-04-25T06:11:26.707Z,1002.768
2017-04-25T06:14:31.501Z,1002.626
2017-04-25T06:17:36.575Z,1002.748
2017-04-25T06:23:45.061Z,1002.613
2017-04-25T06:32:57.726Z,1002.622
2017-04-25T06:36:01.339Z,1002.821
2017-04-25T06:39:05.211Z,1002.879
2017-04-25T06:42:08.407Z,1002.920
2017-04-25T06:48:11.806Z,1003.027
2017-04-25T06:54:27.583Z,1002.920
2017-04-25T06:57:32.451Z,1002.885
2017-04-25T07:03:40.969Z,1002.816
2017-04-25T07:06:44.529Z,1002.810
2017-04-25T07:12:51.690Z,1002.894
2017-04-25T07:15:53.711Z,1002.905
2017-04-25T07:22:01.309Z,1002.820
2017-04-25T07:25:05.016Z,1002.768
2017-04-25T07:28:08.039Z,1002.749
2017-04-25T07:37:19.676Z,1002.474
2017-04-25T07:40:23.298Z,1002.422
2017-04-25T07:43:28.682Z,1002.475
2017-04-25T07:55:44.204Z,1002.498
2017-04-25T08:01:49.538Z,1002.650
2017-04-25T08:04:52.943Z,1002.705
2017-04-25T08:07:57.145Z,1002.673
2017-04-25T08:17:10.313Z,1002.527
2017-04-25T08:23:18.908Z,1002.542
2017-04-25T08:26:22.449Z,1002.544
2017-04-25T08:29:27.383Z,1002.501
2017-04-25T08:32:30.554Z,1002.405
2017-04-25T08:35:34.133Z,1002.347
2017-04-25T08:38:38.018Z,1002.323
2017-04-25T08:41:41.025Z,1002.228
2017-04-25T08:47:48.751Z,1002.222
2017-04-25T09:00:03.532Z,1002.282
2017-04-25T09:06:13.106Z,1002.145
2017-04-25T09:09:15.332Z,1002.136
2017-04-25T09:12:19.227Z,1002.068
2017-04-25T09:15:24.579Z,1002.073
2017-04-25T09:18:30.178Z,1002.112
2017-04-25T09:21:33.401Z,1002.093
2017-04-25T09:24:36.459Z,1002.240
2017-04-25T09:27:35.418Z,1002.386
2017-04-25T09:30:45.856Z,1002.457
2017-04-25T09:33:49.592Z,1002.460
2017-04-25T09:36:46.411Z,1002.494
2017-04-25T09:39:54.259Z,1002.527
2017-04-25T09:55:15.107Z,1002.595
2017-04-25T09:58:19.298Z,1002.541
2017-04-25T10:04:28.133Z,1002.619
2017-04-25T10:07:31.431Z,1002.580
2017-04-25T10:10:36.053Z,1002.673
2017-04-25T10:16:42.589Z,1002.692
2017-04-25T10:22:51.944Z,1002.749
2017-04-25T10:29:00.552Z,1002.761
2017-04-25T10:32:05.688Z,1002.764
2017-04-25T10:35:09.829Z,1002.787
2017-04-25T10:41:15.357Z,1002.800
2017-04-25T10:56:31.493Z,1002.561
2017-04-25T10:59:41.993Z,1002.434
2017-04-25T11:02:47.243Z,1002.262
2017-04-25T11:18:12.319Z,1002.451
2017-04-25T11:21:17.308Z,1002.513
2017-04-25T11:24:22.236Z,1002.525
2017-04-25T11:27:27.601Z,1002.579
2017-04-25T11:36:39.155Z,1002.627
2017-04-25T11:39:43.167Z,1002.576
2017-04-25T11:52:00.759Z,1002.765
2017-04-25T11:55:04.569Z,1002.899
2017-04-25T12:04:18.964Z,1003.004
2017-04-25T12:13:30.991Z,1003.093
2017-04-25T12:19:38.542Z,1003.039
2017-04-25T12:22:42.295Z,1003.008
2017-04-25T12:25:47.175Z,1002.970
2017-04-25T12:28:51.294Z,1002.950
2017-04-25T12:31:55.936Z,1002.854
2017-04-25T12:35:00.691Z,1002.820
2017-04-25T12:41:10.108Z,1002.735
2017-04-25T12:47:19.724Z,1002.669
2017-04-25T12:50:22.837Z,1002.686
2017-04-25T12:53:25.733Z,1002.643
2017-04-25T12:59:34.141Z,1002.758
2017-04-25T13:21:04.231Z,1003.123
2017-04-25T13:30:18.698Z,1003.046
2017-04-25T13:33:22.590Z,1003.088
2017-04-25T13:36:27.065Z,1003.105
2017-04-25T13:42:35.014Z,1003.247
2017-04-25T13:48:42.817Z,1003.288
2017-04-25T13:51:47.256Z,1003.337
2017-04-25T13:54:52.357Z,1003.398
2017-04-25T14:01:01.807Z,1003.447
2017-04-25T14:04:05.856Z,1003.500
2017-04-25T14:07:09.791Z,1003.546
2017-04-25T14:13:18.677Z,1003.713
2017-04-25T14:16:22.676Z,1003.784
2017-04-25T14:22:32.074Z,1003.811
2017-04-25T14:25:35.363Z,1003.873
2017-04-25T14:28:39.268Z,1003.891
2017-04-25T14:37:46.222Z,1003.971
2017-04-25T14:40:56.280Z,1003.942
2017-04-25T14:44:02.111Z,1003.987
2017-04-25T14:47:05.747Z,1003.990
2017-04-25T14:50:10.114Z,1004.096
2017-04-25T14:53:13.883Z,1004.113
2017-04-25T14:56:18.325Z,1004.093
2017-04-25T14:59:23.615Z,1004.118
2017-04-25T15:02:28.669Z,1004.220
2017-04-25T15:05:26.761Z,1004.307
2017-04-25T15:08:37.453Z,1004.434
2017-04-25T15:11:41.489Z,1004.483
2017-04-25T15:17:44.362Z,1004.674
2017-04-25T15:20:54.559Z,1004.695
2017-04-25T15:33:15.433Z,1004.808
2017-04-25T15:39:24.401Z,1004.856
2017-04-25T15:42:29.557Z,1004.811
2017-04-25T15:45:35.466Z,1004.909
2017-04-25T15:48:39.803Z,1004.921
2017-04-25T15:51:44.878Z,1004.920
2017-04-25T15:54:49.288Z,1005.056
2017-04-25T15:57:53.379Z,1005.051
2017-04-25T16:16:24.728Z,1005.259
2017-04-25T16:19:29.050Z,1005.284
2017-04-25T16:22:33.166Z,1005.220
2017-04-25T16:25:38.592Z,1005.239
2017-04-25T16:28:42.631Z,1005.232
2017-04-25T16:31:41.234Z,1005.253
2017-04-25T16:34:52.881Z,1005.270
2017-04-25T16:37:51.331Z,1005.289
2017-04-25T16:41:02.506Z,1005.338
2017-04-25T16:44:07.209Z,1005.388
2017-04-25T16:47:11.631Z,1005.384
2017-04-25T16:50:17.220Z,1005.429
2017-04-25T16:53:22.569Z,1005.501
2017-04-25T16:56:28.247Z,1005.560
2017-04-25T16:59:32.526Z,1005.634
2017-04-25T17:05:42.466Z,1005.654
2017-04-25T17:08:46.807Z,1005.674
2017-04-25T17:11:51.042Z,1005.748
2017-04-25T17:17:58.786Z,1005.853
2017-04-25T17:20:57.068Z,1005.881
2017-04-25T17:24:02.028Z,1005.933
2017-04-25T17:27:09.626Z,1005.976
2017-04-25T17:30:01.242Z,1005.980
2017-04-25T17:33:17.873Z,1006.013
2017-04-25T17:36:15.990Z,1006.045
2017-04-25T17:39:27.065Z,1006.054
2017-04-25T17:42:31.800Z,1006.061
2017-04-25T17:45:36.111Z,1006.113
2017-04-25T17:51:45.287Z,1006.168
2017-04-25T17:54:49.651Z,1006.172
2017-04-25T17:57:54.941Z,1006.159
2017-04-25T18:01:00.541Z,1006.169
2017-04-25T18:03:58.507Z,1006.225
2017-04-25T18:07:03.559Z,1006.270
2017-04-25T18:10:14.227Z,1006.273
2017-04-25T18:16:22.936Z,1006.279
2017-04-25T18:19:20.874Z,1006.273
2017-04-25T18:22:26.227Z,1006.326
2017-04-25T18:25:37.440Z,1006.331
2017-04-25T18:28:41.033Z,1006.368
2017-04-25T18:31:44.307Z,1006.355
2017-04-25T18:41:00.443Z,1006.566
2017-04-25T18:50:14.623Z,1006.723
2017-04-25T18:53:19.022Z,1006.731
2017-04-25T18:56:17.669Z,1006.826
2017-04-25T18:59:22.278Z,1006.878
2017-04-25T19:02:33.705Z,1006.903
2017-04-25T19:05:36.637Z,1006.922
2017-04-25T19:08:41.140Z,1006.955
2017-04-25T19:11:44.942Z,1006.984
2017-04-25T19:14:47.610Z,1007.011
2017-04-25T19:17:50.431Z,1007.079
2017-04-25T19:20:54.750Z,1007.127
2017-04-25T19:23:58.822Z,1007.177
2017-04-25T19:27:03.052Z,1007.203
2017-04-25T19:30:07.069Z,1007.205
2017-04-25T19:33:11.134Z,1007.202
2017-04-25T19:36:15.310Z,1007.276
2017-04-25T19:39:19.861Z,1007.319
2017-04-25T19:42:24.268Z,1007.362
2017-04-25T19:48:30.502Z,1007.475
2017-04-25T19:51:33.802Z,1007.466
2017-04-25T19:54:37.320Z,1007.466
2017-04-25T19:57:41.411Z,1007.467
2017-04-25T20:03:47.120Z,1007.449
2017-04-25T20:06:51.693Z,1007.483
2017-04-25T20:09:56.703Z,1007.517
2017-04-25T20:13:02.108Z,1007.555
2017-04-25T20:16:06.359Z,1007.585
2017-04-25T20:19:09.858Z,1007.611
2017-04-25T20:22:14.971Z,1007.590
2017-04-25T20:31:26.826Z,1007.614
2017-04-25T20:34:31.648Z,1007.608
2017-04-25T20:40:40.167Z,1007.683
2017-04-25T20:43:43.697Z,1007.617
2017-04-25T20:49:47.152Z,1007.712
2017-04-25T20:52:57.687Z,1007.700
2017-04-25T20:56:00.382Z,1007.699
2017-04-25T20:59:05.515Z,1007.732
2017-04-25T21:05:15.571Z,1007.757
2017-04-25T21:08:19.932Z,1007.735
2017-04-25T21:11:24.207Z,1007.760
2017-04-25T21:17:32.544Z,1007.802
2017-04-25T21:20:36.728Z,1007.813
2017-04-25T21:23:41.754Z,1007.828
2017-04-25T21:26:43.140Z,1007.808
2017-04-25T21:29:41.341Z,1007.844
2017-04-25T21:32:52.331Z,1007.827
2017-04-25T21:39:02.058Z,1007.874
2017-04-25T21:42:06.465Z,1007.874
2017-04-25T21:45:10.362Z,1007.902
2017-04-25T21:48:14.401Z,1007.933
2017-04-25T21:51:19.606Z,1007.951
2017-04-25T21:54:23.503Z,1007.957
2017-04-25T21:57:27.426Z,1007.988
2017-04-25T22:00:31.279Z,1008.064
2017-04-25T22:03:35.650Z,1008.099
2017-04-25T22:09:43.706Z,1008.183
2017-04-25T22:15:53.056Z,1008.251
2017-04-25T22:18:57.668Z,1008.275
2017-04-25T22:22:02.812Z,1008.296
2017-04-25T22:25:06.809Z,1008.315
2017-04-25T22:28:10.695Z,1008.290
2017-04-25T22:31:14.837Z,1008.316
2017-04-25T22:34:20.173Z,1008.336
2017-04-25T22:37:24.509Z,1008.327
2017-04-25T22:40:29.066Z,1008.344
2017-04-25T22:43:33.034Z,1008.323
2017-04-25T22:49:41.697Z,1008.324
2017-04-25T22:55:50.090Z,1008.259
2017-04-25T22:58:48.276Z,1008.275
2017-04-25T23:01:59.285Z,1008.297
2017-04-25T23:05:03.441Z,1008.243
2017-04-25T23:08:07.266Z,1008.224
2017-04-25T23:14:16.391Z,1008.140
2017-04-25T23:17:21.671Z,1008.184
2017-04-25T23:20:26.722Z,1008.169
2017-04-25T23:23:30.664Z,1008.173
2017-04-25T23:26:35.673Z,1008.184
2017-04-25T23:29:40.205Z,1008.169
2017-04-25T23:32:45.250Z,1008.157
2017-04-25T23:35:48.918Z,1008.199
2017-04-25T23:38:53.976Z,1008.223
2017-04-25T23:41:59.053Z,1008.174
2017-04-25T23:44:56.937Z,1008.173
2017-04-25T23:48:07.621Z,1008.148
2017-04-25T23:51:11.729Z,1008.191
2017-04-25T23:54:12.994Z,1008.232
2017-04-25T23:57:17.678Z,1008.263
